Time;durP1;ratioP1;P1;durP2;ratioP2;P2;SDS_P1;SDS_P2;PMS_P1;PMS_P2;Temp;Humidity;BMP_temperature;BMP_pressure;BME280_temperature;BME280_humidity;BME280_pressure;Samples;Min_cycle;Max_cycle;Signal;HPM_P1;HPM_P2
2023/07/09 00:00:28;;;;;;;;;;;;;;;21.79;33.94;101034.50;4927461;28;98217;-72
2023/07/09 00:02:55;;;;;;;;;;;;;;;21.73;33.98;101036.66;4944294;28;98355;-67
2023/07/09 00:05:21;;;;;;;;;;;;;;;21.66;34.03;101041.84;4932089;27;98078;-67
2023/07/09 00:07:48;;;;;;;;;;;;;;;21.60;34.09;101039.59;4930181;28;98136;-66
2023/07/09 00:10:21;;;;;;;;;;;;;;;21.52;33.98;101038.47;4940291;28;98171;-66
2023/07/09 00:12:47;;;;;;;;;;;;;;;21.45;34.13;101041.72;4926604;27;98269;-66
2023/07/09 00:15:16;;;;;;;;;;;;;;;21.39;34.11;101048.53;4926800;28;98104;-72
2023/07/09 00:17:42;;;;;;;;;;;;;;;21.33;34.11;101050.63;4948932;27;98823;-71
2023/07/09 00:20:17;;;;;;;;;;;;;;;21.28;34.15;101047.22;4945109;28;97990;-72
2023/07/09 00:22:52;;;;;;;;;;;;;;;21.20;34.11;101045.31;4941548;28;98382;-67
2023/07/09 00:25:19;;;;;;;;;;;;;;;21.11;34.28;101045.31;4928992;27;98081;-72
2023/07/09 00:27:48;;;;;;;;;;;;;;;21.04;34.12;101051.28;4962409;27;97958;-66
2023/07/09 00:30:18;;;;;;;;;;;;;;;20.98;34.22;101043.53;4941435;27;97975;-72
2023/07/09 00:32:45;;;;;;;;;;;;;;;20.93;34.16;101044.53;4925502;27;99456;-72
2023/07/09 00:35:15;;;;;;;;;;;;;;;20.89;34.32;101045.50;4924803;28;98041;-67
2023/07/09 00:37:43;;;;;;;;;;;;;;;20.86;34.25;101041.44;4931095;28;100242;-72
2023/07/09 00:40:16;;;;;;;;;;;;;;;20.79;34.24;101032.94;4929852;27;98981;-67
2023/07/09 00:42:47;;;;;;;;;;;;;;;20.74;34.31;101038.56;4935045;27;98271;-67
2023/07/09 00:45:24;;;;;;;;;;;;;;;20.68;34.18;101039.84;4944920;28;98118;-67
2023/07/09 00:47:56;;;;;;;;;;;;;;;20.62;34.33;101038.38;4926982;28;98336;-73
2023/07/09 00:50:32;;;;;;;;;;;;;;;20.54;34.26;101031.78;4944100;28;98567;-67
2023/07/09 00:53:30;;;;;;;;;;;;;;;20.48;34.32;101035.78;4965793;27;99707;-66
2023/07/09 00:56:03;;;;;;;;;;;;;;;20.43;34.26;101033.97;4899953;28;98342;-73
2023/07/09 00:58:29;;;;;;;;;;;;;;;20.41;34.33;101032.72;4959582;28;98793;-66
2023/07/09 01:01:01;;;;;;;;;;;;;;;20.38;34.41;101030.59;4944894;27;98284;-73
2023/07/09 01:03:43;;;;;;;;;;;;;;;20.34;34.31;101035.91;4946277;27;97991;-66
2023/07/09 01:06:09;;;;;;;;;;;;;;;20.32;34.28;101035.44;4947759;27;98275;-66
2023/07/09 01:08:38;;;;;;;;;;;;;;;20.27;34.37;101032.81;4931495;28;98167;-65
2023/07/09 01:11:08;;;;;;;;;;;;;;;20.23;34.34;101029.91;4925151;28;98810;-72
2023/07/09 01:13:35;;;;;;;;;;;;;;;20.17;34.38;101033.16;4944938;28;99049;-66
2023/07/09 01:16:01;;;;;;;;;;;;;;;20.13;34.39;101029.44;4928415;28;99095;-65
2023/07/09 01:18:28;;;;;;;;;;;;;;;20.09;34.41;101037.47;4920472;27;100402;-72
2023/07/09 01:21:03;;;;;;;;;;;;;;;20.05;34.51;101033.75;4926523;28;98700;-72
2023/07/09 01:23:30;;;;;;;;;;;;;;;20.02;34.37;101032.44;4945591;27;98026;-66
2023/07/09 01:25:57;;;;;;;;;;;;;;;19.99;34.57;101035.00;4931081;27;99591;-72
2023/07/09 01:28:24;;;;;;;;;;;;;;;19.95;34.55;101031.28;4926796;28;99295;-72
2023/07/09 01:30:53;;;;;;;;;;;;;;;19.92;34.63;101032.72;4927119;27;99481;-72
2023/07/09 01:33:21;;;;;;;;;;;;;;;19.90;34.38;101029.50;4961220;27;101506;-72
2023/07/09 01:35:49;;;;;;;;;;;;;;;19.85;34.57;101030.47;4939585;28;98373;-66
2023/07/09 01:38:16;;;;;;;;;;;;;;;19.85;34.45;101032.41;4928082;28;98219;-72
2023/07/09 01:40:44;;;;;;;;;;;;;;;19.82;34.46;101028.34;4920853;27;98064;-66
2023/07/09 01:43:11;;;;;;;;;;;;;;;19.80;34.40;101029.78;4926746;28;97971;-66
2023/07/09 01:45:37;;;;;;;;;;;;;;;19.78;34.54;101029.31;4930960;27;98335;-66
2023/07/09 01:48:04;;;;;;;;;;;;;;;19.77;34.54;101030.44;4926105;27;99790;-66
2023/07/09 01:50:31;;;;;;;;;;;;;;;19.77;34.53;101028.50;4925590;28;98135;-72
2023/07/09 01:52:58;;;;;;;;;;;;;;;19.78;34.62;101029.31;4928043;28;98725;-66
2023/07/09 01:55:25;;;;;;;;;;;;;;;19.78;34.48;101027.38;4926423;27;97985;-72
2023/07/09 01:57:52;;;;;;;;;;;;;;;19.79;34.50;101036.38;4932237;27;99605;-66
2023/07/09 02:00:19;;;;;;;;;;;;;;;19.78;34.45;101030.13;4943128;28;98412;-72
2023/07/09 02:02:46;;;;;;;;;;;;;;;19.77;34.44;101027.72;4938736;28;98031;-72
2023/07/09 02:05:16;;;;;;;;;;;;;;;19.75;34.71;101029.94;4927888;28;98138;-66
2023/07/09 02:07:42;;;;;;;;;;;;;;;19.71;34.60;101031.69;4928822;28;98079;-66
2023/07/09 02:10:10;;;;;;;;;;;;;;;19.65;34.48;101033.75;4926179;27;98700;-66
2023/07/09 02:12:37;;;;;;;;;;;;;;;19.60;34.61;101028.38;4945728;27;98228;-72
2023/07/09 02:15:03;;;;;;;;;;;;;;;19.53;34.69;101037.06;4928846;27;98367;-66
2023/07/09 02:17:30;;;;;;;;;;;;;;;19.46;34.58;101042.16;4925496;27;98162;-72
2023/07/09 02:19:56;;;;;;;;;;;;;;;19.41;34.68;101038.72;4931295;28;98384;-72
2023/07/09 02:22:23;;;;;;;;;;;;;;;19.36;34.67;101039.66;4926380;28;98012;-72
2023/07/09 02:24:49;;;;;;;;;;;;;;;19.31;34.75;101043.34;4944715;27;100091;-66
2023/07/09 02:27:17;;;;;;;;;;;;;;;19.27;34.46;101039.63;4925308;27;98260;-66
2023/07/09 02:29:45;;;;;;;;;;;;;;;19.24;34.86;101053.09;4940995;28;98404;-72
2023/07/09 02:32:13;;;;;;;;;;;;;;;19.20;34.80;101060.31;4943741;28;98125;-66
2023/07/09 02:34:40;;;;;;;;;;;;;;;19.16;34.62;101054.66;4921783;28;98462;-66
2023/07/09 02:37:06;;;;;;;;;;;;;;;19.12;34.90;101057.19;4924617;28;98290;-72
2023/07/09 02:39:32;;;;;;;;;;;;;;;19.07;34.68;101049.13;4922438;28;98262;-67
2023/07/09 02:41:58;;;;;;;;;;;;;;;19.03;34.88;101052.81;4925710;28;99572;-72
2023/07/09 02:44:25;;;;;;;;;;;;;;;18.99;34.84;101055.34;4938006;28;98333;-72
2023/07/09 02:46:51;;;;;;;;;;;;;;;18.96;34.85;101058.69;4926764;28;98136;-66
2023/07/09 02:49:19;;;;;;;;;;;;;;;18.94;34.87;101051.91;4937793;28;98309;-67
2023/07/09 02:51:46;;;;;;;;;;;;;;;18.91;34.86;101058.00;4945682;27;99766;-72
2023/07/09 02:54:13;;;;;;;;;;;;;;;18.85;34.89;101066.31;4942344;27;98804;-73
2023/07/09 02:56:39;;;;;;;;;;;;;;;18.81;34.78;101062.56;4943986;27;98966;-67
2023/07/09 02:59:07;;;;;;;;;;;;;;;18.77;35.03;101069.75;4927239;28;98040;-68
2023/07/09 03:01:34;;;;;;;;;;;;;;;18.72;34.87;101066.34;4927336;27;98045;-68
2023/07/09 03:04:01;;;;;;;;;;;;;;;18.68;34.96;101073.50;4928148;28;97986;-67
2023/07/09 03:06:28;;;;;;;;;;;;;;;18.63;34.96;101075.25;4941335;27;98246;-74
2023/07/09 03:08:55;;;;;;;;;;;;;;;18.59;34.94;101076.97;4942420;28;98233;-67
2023/07/09 03:11:22;;;;;;;;;;;;;;;18.55;34.91;101072.41;4943656;28;98117;-73
2023/07/09 03:13:48;;;;;;;;;;;;;;;18.52;34.88;101071.13;4945962;28;97825;-74
2023/07/09 03:16:15;;;;;;;;;;;;;;;18.51;35.00;101072.25;4927475;28;98157;-68
2023/07/09 03:18:42;;;;;;;;;;;;;;;18.51;34.86;101077.69;4943945;27;98186;-74
2023/07/09 03:21:09;;;;;;;;;;;;;;;18.51;35.07;101082.31;4924250;28;98481;-67
2023/07/09 03:23:35;;;;;;;;;;;;;;;18.48;34.98;101091.16;4936733;28;98057;-73
2023/07/09 03:26:02;;;;;;;;;;;;;;;18.47;35.03;101090.34;4927801;28;98299;-67
2023/07/09 03:28:31;;;;;;;;;;;;;;;18.47;35.04;101086.78;4949568;28;98856;-67
2023/07/09 03:30:58;;;;;;;;;;;;;;;18.43;34.91;101089.34;4939234;27;98191;-67
2023/07/09 03:33:26;;;;;;;;;;;;;;;18.42;35.00;101092.34;4931153;28;98217;-73
2023/07/09 03:35:52;;;;;;;;;;;;;;;18.42;34.96;101089.63;4945113;28;98232;-73
2023/07/09 03:38:19;;;;;;;;;;;;;;;18.43;35.08;101092.06;4933353;27;98306;-73
2023/07/09 03:40:49;;;;;;;;;;;;;;;18.45;35.02;101095.28;4932074;28;98345;-73
2023/07/09 03:43:16;;;;;;;;;;;;;;;18.48;35.14;101091.16;4932113;28;97931;-72
2023/07/09 03:45:43;;;;;;;;;;;;;;;18.50;35.08;101102.56;4931759;27;98053;-67
2023/07/09 03:48:09;;;;;;;;;;;;;;;18.52;35.04;101101.16;4928115;27;98297;-73
2023/07/09 03:50:36;;;;;;;;;;;;;;;18.55;34.96;101108.72;4921549;27;98666;-67
2023/07/09 03:53:03;;;;;;;;;;;;;;;18.57;34.92;101102.94;4927406;27;98267;-66
2023/07/09 03:55:29;;;;;;;;;;;;;;;18.58;34.96;101105.38;4927753;27;99320;-67
2023/07/09 03:57:55;;;;;;;;;;;;;;;18.62;34.99;101102.84;4930001;27;98127;-73
2023/07/09 04:00:22;;;;;;;;;;;;;;;18.67;35.03;101105.47;4959764;28;98503;-72
2023/07/09 04:02:49;;;;;;;;;;;;;;;18.70;34.95;101106.75;4929071;28;100698;-67
2023/07/09 04:05:17;;;;;;;;;;;;;;;18.72;34.91;101108.13;4930341;28;100834;-67
2023/07/09 04:07:43;;;;;;;;;;;;;;;18.74;34.94;101105.06;4929808;27;98177;-67
2023/07/09 04:10:10;;;;;;;;;;;;;;;18.80;34.94;101106.59;4947064;28;98147;-66
2023/07/09 04:12:36;;;;;;;;;;;;;;;18.91;35.01;101107.19;4925880;27;98161;-70
2023/07/09 04:15:04;;;;;;;;;;;;;;;19.02;35.01;101106.63;4941931;27;98062;-67
2023/07/09 04:17:30;;;;;;;;;;;;;;;19.14;34.97;101106.09;4930133;28;100109;-73
2023/07/09 04:19:56;;;;;;;;;;;;;;;19.24;34.60;101111.28;4928369;27;98182;-73
2023/07/09 04:22:22;;;;;;;;;;;;;;;19.32;34.83;101109.75;4930022;27;98032;-73
2023/07/09 04:24:50;;;;;;;;;;;;;;;19.38;34.79;101114.78;4932526;27;98527;-67
2023/07/09 04:27:16;;;;;;;;;;;;;;;19.45;34.82;101119.78;4929757;27;98081;-67
2023/07/09 04:29:43;;;;;;;;;;;;;;;19.54;34.74;101114.41;4930210;28;98263;-73
2023/07/09 04:32:12;;;;;;;;;;;;;;;19.65;34.87;101114.97;4945068;28;98099;-67
2023/07/09 04:34:39;;;;;;;;;;;;;;;19.72;34.89;101110.66;4943777;27;98424;-67
2023/07/09 04:37:08;;;;;;;;;;;;;;;19.83;34.82;101111.22;4926480;27;97966;-73
2023/07/09 04:39:35;;;;;;;;;;;;;;;19.94;34.53;101119.97;4943718;27;98241;-73
2023/07/09 04:42:01;;;;;;;;;;;;;;;20.03;34.68;101113.41;4925826;28;98140;-67
2023/07/09 04:44:27;;;;;;;;;;;;;;;20.14;34.81;101113.13;4927061;28;100656;-67
2023/07/09 04:46:54;;;;;;;;;;;;;;;20.24;34.60;101115.56;4939824;28;99358;-67
2023/07/09 04:49:20;;;;;;;;;;;;;;;20.34;34.85;101121.56;4930575;28;97954;-73
2023/07/09 04:51:46;;;;;;;;;;;;;;;20.45;34.72;101124.03;4926827;27;98090;-73
2023/07/09 04:54:13;;;;;;;;;;;;;;;20.55;34.59;101123.75;4926458;28;100023;-67
2023/07/09 04:56:40;;;;;;;;;;;;;;;20.66;34.83;101116.03;4928674;28;98466;-73
2023/07/09 04:59:06;;;;;;;;;;;;;;;20.75;34.60;101111.38;4930614;28;98123;-72
2023/07/09 05:01:32;;;;;;;;;;;;;;;20.81;34.78;101124.59;4946563;28;98080;-67
2023/07/09 05:03:59;;;;;;;;;;;;;;;20.89;34.65;101123.00;4932560;27;98117;-72
2023/07/09 05:06:26;;;;;;;;;;;;;;;20.97;34.54;101119.47;4943967;28;97996;-67
2023/07/09 05:08:53;;;;;;;;;;;;;;;21.05;34.59;101118.66;4949386;28;98097;-68
2023/07/09 05:11:19;;;;;;;;;;;;;;;21.16;34.59;101124.63;4929648;28;99838;-67
2023/07/09 05:13:45;;;;;;;;;;;;;;;21.28;34.42;101121.25;4928123;28;99533;-67
2023/07/09 05:16:11;;;;;;;;;;;;;;;21.37;34.39;101119.31;4929861;28;98061;-68
2023/07/09 05:18:38;;;;;;;;;;;;;;;21.45;34.46;101121.25;4929344;28;100164;-73
2023/07/09 05:21:05;;;;;;;;;;;;;;;21.58;34.38;101115.91;4922545;28;98004;-67
2023/07/09 05:23:31;;;;;;;;;;;;;;;21.71;34.35;101118.47;4924779;27;98098;-73
2023/07/09 05:26:02;;;;;;;;;;;;;;;21.78;34.28;101117.97;4929901;27;98086;-67
2023/07/09 05:28:28;;;;;;;;;;;;;;;21.89;34.38;101121.97;4922501;28;101237;-67
2023/07/09 05:30:55;;;;;;;;;;;;;;;22.04;34.23;101118.66;4925358;27;98187;-73
2023/07/09 05:33:21;;;;;;;;;;;;;;;22.20;34.01;101116.19;4929336;28;98668;-74
2023/07/09 05:35:47;;;;;;;;;;;;;;;22.38;34.08;101116.94;4921636;28;100233;-67
2023/07/09 05:38:14;;;;;;;;;;;;;;;22.57;33.92;101123.94;4922570;28;98061;-73
2023/07/09 05:40:41;;;;;;;;;;;;;;;22.78;33.97;101119.25;4925451;27;99530;-73
2023/07/09 05:43:08;;;;;;;;;;;;;;;23.00;33.66;101124.47;4939699;28;99290;-66
2023/07/09 05:45:35;;;;;;;;;;;;;;;23.20;33.74;101125.59;4942172;27;98086;-66
2023/07/09 05:48:02;;;;;;;;;;;;;;;23.46;33.74;101135.53;4932663;28;98443;-66
2023/07/09 05:50:28;;;;;;;;;;;;;;;23.69;33.61;101131.28;4931715;28;99461;-73
2023/07/09 05:52:55;;;;;;;;;;;;;;;23.97;33.69;101134.25;4943578;28;98385;-66
2023/07/09 05:55:21;;;;;;;;;;;;;;;24.30;33.33;101133.34;4945139;28;98833;-66
2023/07/09 05:57:48;;;;;;;;;;;;;;;24.66;33.27;101126.22;4928437;27;98247;-67
2023/07/09 06:00:15;;;;;;;;;;;;;;;25.00;33.48;101129.59;4941894;27;98202;-67
2023/07/09 06:02:41;;;;;;;;;;;;;;;25.39;33.25;101125.25;4925240;28;98662;-67
2023/07/09 06:05:11;;;;;;;;;;;;;;;25.80;33.29;101128.72;4933467;28;99239;-67
2023/07/09 06:07:38;;;;;;;;;;;;;;;26.22;33.02;101126.22;4942673;27;99582;-73
2023/07/09 06:10:08;;;;;;;;;;;;;;;26.68;33.06;101121.00;4940095;27;98820;-68
2023/07/09 06:12:35;;;;;;;;;;;;;;;27.11;32.83;101131.03;4935188;27;98269;-74
2023/07/09 06:15:02;;;;;;;;;;;;;;;27.65;32.88;101127.34;4928381;27;98644;-68
2023/07/09 06:17:29;;;;;;;;;;;;;;;29.02;31.66;101130.31;4929107;27;98302;-74
2023/07/09 06:19:56;;;;;;;;;;;;;;;29.27;31.97;101134.19;4923129;28;98237;-68
2023/07/09 06:22:22;;;;;;;;;;;;;;;29.40;31.97;101137.53;4921451;27;98734;-68
2023/07/09 06:24:50;;;;;;;;;;;;;;;29.80;32.20;101127.63;4922243;27;98142;-74
2023/07/09 06:27:16;;;;;;;;;;;;;;;30.28;32.08;101134.00;4924595;28;98040;-68
2023/07/09 06:29:43;;;;;;;;;;;;;;;30.80;31.86;101128.41;4923388;27;99554;-73
2023/07/09 06:32:09;;;;;;;;;;;;;;;31.17;31.85;101127.38;4925533;27;98072;-74
2023/07/09 06:34:36;;;;;;;;;;;;;;;31.58;31.89;101136.25;4941364;28;98254;-66
2023/07/09 06:37:04;;;;;;;;;;;;;;;32.44;31.44;101137.13;4925957;27;98062;-72
2023/07/09 06:39:31;;;;;;;;;;;;;;;33.08;31.10;101136.13;4922149;27;98957;-66
2023/07/09 06:41:57;;;;;;;;;;;;;;;34.18;30.19;101147.84;4920857;28;98446;-72
2023/07/09 06:44:25;;;;;;;;;;;;;;;35.77;29.20;101137.94;4916160;28;98189;-66
2023/07/09 06:46:52;;;;;;;;;;;;;;;35.54;29.64;101138.72;4935685;27;98549;-65
2023/07/09 06:49:18;;;;;;;;;;;;;;;35.00;30.20;101135.03;4940926;28;98547;-72
2023/07/09 06:51:44;;;;;;;;;;;;;;;34.84;30.63;101135.59;4924399;27;99522;-65
2023/07/09 06:54:12;;;;;;;;;;;;;;;34.95;30.88;101135.47;4916848;28;99607;-65
2023/07/09 06:56:38;;;;;;;;;;;;;;;35.04;30.65;101130.16;4909827;28;103142;-72
2023/07/09 06:59:05;;;;;;;;;;;;;;;35.12;30.71;101129.66;4939274;28;98277;-73
2023/07/09 07:01:32;;;;;;;;;;;;;;;35.30;30.29;101125.81;4937394;27;98125;-72
2023/07/09 07:03:58;;;;;;;;;;;;;;;35.57;30.64;101128.66;4937974;27;98596;-72
2023/07/09 07:06:24;;;;;;;;;;;;;;;36.02;30.39;101123.53;4936348;27;98041;-73
2023/07/09 07:08:50;;;;;;;;;;;;;;;36.43;30.12;101121.59;4938382;27;102209;-66
2023/07/09 07:11:17;;;;;;;;;;;;;;;36.79;30.13;101122.53;4916380;28;98544;-73
2023/07/09 07:13:43;;;;;;;;;;;;;;;37.25;29.80;101120.75;4922459;27;98416;-73
2023/07/09 07:16:10;;;;;;;;;;;;;;;37.74;29.41;101122.84;4940882;28;98164;-67
2023/07/09 07:18:37;;;;;;;;;;;;;;;38.04;29.14;101124.53;4940639;27;98544;-74
2023/07/09 07:21:03;;;;;;;;;;;;;;;38.20;29.46;101124.53;4924800;27;98102;-74
2023/07/09 07:23:29;;;;;;;;;;;;;;;38.34;29.62;101119.75;4924132;28;98360;-75
2023/07/09 07:25:55;;;;;;;;;;;;;;;38.49;29.47;101123.75;4920405;28;98128;-74
2023/07/09 07:28:21;;;;;;;;;;;;;;;38.92;29.11;101120.53;4926047;27;98516;-75
2023/07/09 07:30:57;;;;;;;;;;;;;;;39.26;29.44;101117.09;4923165;27;98044;-75
2023/07/09 07:33:23;;;;;;;;;;;;;;;39.48;29.39;101122.06;4929867;28;98177;-68
2023/07/09 07:35:49;;;;;;;;;;;;;;;39.64;29.40;101119.09;4923885;28;100294;-75
2023/07/09 07:38:16;;;;;;;;;;;;;;;39.84;29.06;101126.53;4926031;27;98360;-68
2023/07/09 07:40:45;;;;;;;;;;;;;;;40.06;29.19;101116.13;4923904;28;98059;-68
2023/07/09 07:43:11;;;;;;;;;;;;;;;40.27;29.10;101114.59;4922177;27;98945;-75
2023/07/09 07:45:41;;;;;;;;;;;;;;;40.62;28.90;101111.75;4923413;27;98339;-68
2023/07/09 07:48:07;;;;;;;;;;;;;;;40.99;28.71;101117.63;4939515;28;98168;-75
2023/07/09 07:50:33;;;;;;;;;;;;;;;41.39;28.80;101112.03;4925504;27;98220;-76
2023/07/09 07:52:59;;;;;;;;;;;;;;;41.83;28.63;101121.13;4928255;28;98235;-75
2023/07/09 07:55:25;;;;;;;;;;;;;;;42.38;28.01;101117.56;4927598;28;102741;-68
2023/07/09 07:57:51;;;;;;;;;;;;;;;42.95;27.61;101114.94;4926727;27;111642;-68
2023/07/09 08:00:18;;;;;;;;;;;;;;;43.48;27.39;101117.31;4917621;27;99596;-76
2023/07/09 08:02:44;;;;;;;;;;;;;;;43.90;27.75;101116.44;4922990;28;98261;-76
2023/07/09 08:05:10;;;;;;;;;;;;;;;44.46;27.45;101114.72;4923361;27;99419;-68
2023/07/09 08:07:36;;;;;;;;;;;;;;;44.89;27.10;101103.09;4923460;27;98284;-72
2023/07/09 08:10:02;;;;;;;;;;;;;;;45.11;27.24;101103.47;4922420;27;98549;-76
2023/07/09 08:12:28;;;;;;;;;;;;;;;45.57;27.09;101102.09;4936157;27;98314;-72
2023/07/09 08:14:55;;;;;;;;;;;;;;;46.06;27.12;101103.22;4917234;27;98618;-74
2023/07/09 08:17:21;;;;;;;;;;;;;;;46.53;26.80;101099.09;4923965;28;98013;-75
2023/07/09 08:19:55;;;;;;;;;;;;;;;47.15;26.62;101105.34;4924154;27;98008;-73
2023/07/09 08:22:22;;;;;;;;;;;;;;;47.70;26.11;101099.22;4923169;27;98203;-75
2023/07/09 08:24:51;;;;;;;;;;;;;;;48.20;25.94;101095.00;4924591;27;98389;-74
2023/07/09 08:27:17;;;;;;;;;;;;;;;48.58;25.95;101095.56;4927158;27;98032;-75
2023/07/09 08:29:44;;;;;;;;;;;;;;;48.92;25.97;101097.13;4927756;27;98032;-75
2023/07/09 08:32:10;;;;;;;;;;;;;;;49.32;25.76;101094.22;4927209;27;97982;-75
2023/07/09 08:34:38;;;;;;;;;;;;;;;49.70;25.81;101086.81;4927146;28;97931;-75
2023/07/09 08:37:05;;;;;;;;;;;;;;;50.00;25.99;101080.47;4932466;27;98328;-75
2023/07/09 08:39:32;;;;;;;;;;;;;;;50.26;25.70;101075.09;4929368;27;98318;-75
2023/07/09 08:42:02;;;;;;;;;;;;;;;50.32;25.92;101075.84;4919543;28;98193;-75
2023/07/09 08:44:53;;;;;;;;;;;;;;;50.47;25.74;101066.88;4928597;28;98090;-76
2023/07/09 08:47:26;;;;;;;;;;;;;;;50.81;25.50;101075.16;4969624;27;100239;-74
2023/07/09 08:50:00;;;;;;;;;;;;;;;51.23;25.59;101070.09;4941352;27;98333;-76
2023/07/09 08:52:43;;;;;;;;;;;;;;;51.65;25.41;101071.44;4945301;28;97969;-76
2023/07/09 08:55:20;;;;;;;;;;;;;;;51.82;24.88;101059.69;4927685;28;99488;-76
2023/07/09 08:57:59;;;;;;;;;;;;;;;52.05;25.28;101062.28;4928111;27;98576;-75
2023/07/09 09:00:54;;;;;;;;;;;;;;;52.20;24.91;101057.59;4945493;28;98980;-76
2023/07/09 09:03:50;;;;;;;;;;;;;;;52.58;25.18;101051.00;4940631;28;97960;-76
2023/07/09 09:06:26;;;;;;;;;;;;;;;52.93;24.62;101055.59;4944656;28;98514;-76
2023/07/09 09:09:00;;;;;;;;;;;;;;;53.11;24.60;101048.19;4927905;28;98468;-76
2023/07/09 09:11:46;;;;;;;;;;;;;;;53.33;24.89;101044.88;4941683;28;98915;-77
2023/07/09 09:14:42;;;;;;;;;;;;;;;53.39;24.56;101053.41;4924782;27;98399;-76
2023/07/09 09:17:13;;;;;;;;;;;;;;;53.33;25.00;101052.72;4945500;28;98264;-77
2023/07/09 09:19:53;;;;;;;;;;;;;;;53.42;24.65;101050.19;4919820;28;98172;-76
2023/07/09 09:22:23;;;;;;;;;;;;;;;53.57;24.54;101048.84;4920394;27;100235;-76
2023/07/09 09:25:12;;;;;;;;;;;;;;;52.66;25.44;101044.03;4941478;27;98080;-76
2023/07/09 09:27:39;;;;;;;;;;;;;;;51.60;26.03;101051.41;4958546;27;98342;-76
2023/07/09 09:30:09;;;;;;;;;;;;;;;51.00;26.12;101040.84;4925508;28;98321;-74
2023/07/09 09:32:56;;;;;;;;;;;;;;;50.60;26.30;101043.31;4942197;28;99688;-75
2023/07/09 09:35:28;;;;;;;;;;;;;;;50.47;26.59;101038.19;4927583;28;98317;-76
2023/07/09 09:37:56;;;;;;;;;;;;;;;50.74;26.46;101044.22;4941455;28;98474;-74
2023/07/09 09:40:23;;;;;;;;;;;;;;;51.28;26.10;101043.44;4928315;27;98400;-76
2023/07/09 09:42:51;;;;;;;;;;;;;;;51.87;25.06;101041.59;4921980;27;98128;-73
2023/07/09 09:45:25;;;;;;;;;;;;;;;52.26;25.17;101048.91;4955306;28;98359;-75
2023/07/09 09:47:52;;;;;;;;;;;;;;;52.81;25.02;101046.38;4923978;27;98339;-76
2023/07/09 09:50:20;;;;;;;;;;;;;;;53.09;24.45;101040.09;4908683;27;98200;-75
2023/07/09 09:52:48;;;;;;;;;;;;;;;53.42;24.68;101035.78;4955629;28;98244;-76
2023/07/09 09:55:27;;;;;;;;;;;;;;;53.85;23.98;101036.69;4938064;27;99167;-76
2023/07/09 09:57:54;;;;;;;;;;;;;;;53.85;24.19;101031.69;4927853;27;98218;-74
2023/07/09 10:00:25;;;;;;;;;;;;;;;53.90;24.18;101027.94;4920889;27;98474;-75
2023/07/09 10:02:56;;;;;;;;;;;;;;;54.26;24.19;101029.44;4920072;27;99954;-74
2023/07/09 10:05:33;;;;;;;;;;;;;;;54.40;24.21;101034.59;4924207;27;98568;-75
2023/07/09 10:08:02;;;;;;;;;;;;;;;54.42;24.32;101029.00;4922193;27;98172;-75
2023/07/09 10:10:30;;;;;;;;;;;;;;;54.40;24.33;101025.16;4939700;28;98086;-76
2023/07/09 10:13:02;;;;;;;;;;;;;;;54.26;24.38;101032.34;4924734;27;98221;-75
2023/07/09 10:15:31;;;;;;;;;;;;;;;54.15;24.21;101025.47;4934862;27;98243;-74
2023/07/09 10:18:15;;;;;;;;;;;;;;;54.16;24.56;101021.28;4941327;27;99308;-74
2023/07/09 10:20:52;;;;;;;;;;;;;;;54.07;24.24;101023.88;4939322;27;98425;-76
2023/07/09 10:23:39;;;;;;;;;;;;;;;54.04;24.28;101025.75;4924357;28;98649;-75
2023/07/09 10:26:43;;;;;;;;;;;;;;;53.87;24.39;101003.09;4945629;27;98040;-74
2023/07/09 10:29:34;;;;;;;;;;;;;;;53.74;24.92;101008.16;4912240;27;99459;-75
2023/07/09 10:32:22;;;;;;;;;;;;;;;53.66;24.95;101011.72;4951106;27;98708;-77
2023/07/09 10:35:17;;;;;;;;;;;;;;;53.62;25.09;101016.28;4924064;27;117297;-75
2023/07/09 10:38:15;;;;;;;;;;;;;;;53.71;24.66;101001.41;4919247;27;99143;-74
2023/07/09 10:40:57;;;;;;;;;;;;;;;53.56;24.60;101001.22;4916711;28;98482;-74
2023/07/09 10:43:35;;;;;;;;;;;;;;;53.64;24.54;101002.84;4925290;28;98149;-75
2023/07/09 10:46:11;;;;;;;;;;;;;;;53.51;24.90;101005.75;4934855;27;98392;-75
2023/07/09 10:48:45;;;;;;;;;;;;;;;53.67;24.85;100998.09;4922461;27;98136;-76
2023/07/09 10:51:26;;;;;;;;;;;;;;;53.67;24.71;101001.75;4940170;27;98542;-75
2023/07/09 10:54:15;;;;;;;;;;;;;;;53.60;24.45;101002.44;4941484;27;103956;-75
2023/07/09 10:56:41;;;;;;;;;;;;;;;53.03;24.74;100995.53;4935218;27;98565;-75
2023/07/09 10:59:20;;;;;;;;;;;;;;;53.02;24.79;100994.72;4912693;27;98866;-75
2023/07/09 11:01:50;;;;;;;;;;;;;;;52.96;24.91;100991.22;4933389;27;97889;-75
2023/07/09 11:04:25;;;;;;;;;;;;;;;52.93;25.01;100989.44;4924152;28;98619;-75
2023/07/09 11:06:51;;;;;;;;;;;;;;;52.79;25.16;100985.78;4938125;28;98348;-75
2023/07/09 11:09:30;;;;;;;;;;;;;;;52.61;24.73;100992.41;4917191;28;100321;-75
2023/07/09 11:12:02;;;;;;;;;;;;;;;52.50;25.12;100990.47;4937529;28;100033;-74
2023/07/09 11:14:45;;;;;;;;;;;;;;;52.27;25.17;100981.47;4921505;28;98855;-75
2023/07/09 11:17:14;;;;;;;;;;;;;;;52.11;24.97;100991.91;4930069;28;98003;-75
2023/07/09 11:19:48;;;;;;;;;;;;;;;52.10;25.01;100980.97;4916674;28;100613;-75
2023/07/09 11:22:28;;;;;;;;;;;;;;;52.02;24.64;100980.84;4919334;28;98037;-75
2023/07/09 11:25:07;;;;;;;;;;;;;;;51.73;25.16;100974.75;4937759;28;97996;-75
2023/07/09 11:27:44;;;;;;;;;;;;;;;51.50;25.16;100976.34;4918828;28;98646;-75
2023/07/09 11:30:26;;;;;;;;;;;;;;;51.26;25.59;100972.25;4917071;28;99089;-75
2023/07/09 11:32:55;;;;;;;;;;;;;;;51.08;25.41;100972.97;4935705;28;98439;-75
2023/07/09 11:35:23;;;;;;;;;;;;;;;50.86;25.41;100967.47;4938932;28;98719;-76
2023/07/09 11:37:53;;;;;;;;;;;;;;;50.50;25.99;100968.31;4921259;28;98119;-76
2023/07/09 11:40:19;;;;;;;;;;;;;;;50.13;26.20;100963.19;4918667;28;100777;-76
2023/07/09 11:42:56;;;;;;;;;;;;;;;49.84;26.06;100953.28;4920841;28;98196;-76
2023/07/09 11:45:32;;;;;;;;;;;;;;;49.42;26.30;100952.44;4941105;28;98784;-76
2023/07/09 11:48:28;;;;;;;;;;;;;;;49.02;26.51;100948.19;4937781;28;99549;-75
2023/07/09 11:50:55;;;;;;;;;;;;;;;48.66;26.67;100948.00;4935193;28;98148;-76
2023/07/09 11:53:26;;;;;;;;;;;;;;;48.30;26.62;100956.31;4922871;28;98938;-74
2023/07/09 11:55:52;;;;;;;;;;;;;;;48.01;26.56;100951.88;4919732;28;99216;-76
2023/07/09 11:58:18;;;;;;;;;;;;;;;47.78;26.69;100956.78;4924497;28;99432;-76
2023/07/09 12:00:53;;;;;;;;;;;;;;;47.57;26.76;100950.50;4920592;28;98449;-75
2023/07/09 12:03:23;;;;;;;;;;;;;;;47.46;26.86;100953.31;4934917;28;98264;-75
2023/07/09 12:05:51;;;;;;;;;;;;;;;47.35;27.11;100953.25;4930997;28;98638;-74
2023/07/09 12:08:17;;;;;;;;;;;;;;;47.26;26.76;100954.25;4923999;28;98261;-76
2023/07/09 12:10:43;;;;;;;;;;;;;;;47.20;27.12;100944.88;4920784;28;98221;-76
2023/07/09 12:13:10;;;;;;;;;;;;;;;47.16;27.00;100936.56;4921737;28;98530;-76
2023/07/09 12:15:38;;;;;;;;;;;;;;;47.09;26.59;100937.06;4915298;28;100137;-76
2023/07/09 12:18:10;;;;;;;;;;;;;;;47.05;26.63;100938.63;4939362;28;98352;-75
2023/07/09 12:20:36;;;;;;;;;;;;;;;47.00;27.11;100934.41;4926325;28;98398;-75
2023/07/09 12:23:22;;;;;;;;;;;;;;;46.93;26.99;100934.91;4926105;28;97958;-76
2023/07/09 12:25:50;;;;;;;;;;;;;;;46.84;26.86;100927.31;4934990;28;99362;-74
2023/07/09 12:28:19;;;;;;;;;;;;;;;46.81;26.88;100939.75;4923530;28;98353;-74
2023/07/09 12:30:51;;;;;;;;;;;;;;;46.73;27.02;100930.09;4921514;28;98085;-76
2023/07/09 12:33:28;;;;;;;;;;;;;;;46.62;27.00;100928.00;4937168;28;98111;-75
2023/07/09 12:35:58;;;;;;;;;;;;;;;46.47;26.86;100925.25;4933002;28;99208;-75
2023/07/09 12:38:26;;;;;;;;;;;;;;;46.37;26.89;100921.03;4935181;28;98827;-75
2023/07/09 12:40:52;;;;;;;;;;;;;;;46.30;26.86;100920.72;4922017;28;98286;-74
2023/07/09 12:43:31;;;;;;;;;;;;;;;46.18;27.15;100905.59;4935561;28;98715;-75
2023/07/09 12:46:00;;;;;;;;;;;;;;;46.10;26.95;100910.19;4922746;28;98338;-76
2023/07/09 12:48:28;;;;;;;;;;;;;;;46.03;26.93;100911.44;4925776;28;98191;-74